Time;durP1;ratioP1;P1;durP2;ratioP2;P2;SDS_P1;SDS_P2;PMS_P1;PMS_P2;Temp;Humidity;BMP_temperature;BMP_pressure;BME280_temperature;BME280_humidity;BME280_pressure;Samples;Min_cycle;Max_cycle;Signal;HPM_P1;HPM_P2
2022/02/21 00:01:45;;;;;;;3.70;0.60;;;10.00;99.90;;;;;;4952896;29;20280;-72
2022/02/21 00:04:11;;;;;;;1.23;0.67;;;10.00;99.90;;;;;;4953441;29;20187;-71
2022/02/21 00:06:36;;;;;;;2.97;0.60;;;10.10;99.90;;;;;;4953595;29;20268;-72
2022/02/21 00:09:02;;;;;;;3.37;0.60;;;10.10;99.90;;;;;;4954010;29;20184;-71
2022/02/21 00:11:27;;;;;;;1.93;0.70;;;10.10;99.90;;;;;;4952929;28;20469;-72
2022/02/21 00:13:53;;;;;;;0.70;0.70;;;10.20;99.90;;;;;;4952951;29;20290;-70
2022/02/21 00:16:18;;;;;;;1.27;0.70;;;10.10;99.90;;;;;;4953629;29;20200;-72
2022/02/21 00:18:44;;;;;;;0.67;0.60;;;10.20;99.90;;;;;;4953517;29;20182;-72
2022/02/21 00:21:10;;;;;;;1.67;0.83;;;10.20;99.90;;;;;;4953431;29;20192;-72
2022/02/21 00:23:35;;;;;;;0.80;0.70;;;10.20;99.90;;;;;;4952639;28;20208;-72
2022/02/21 00:26:01;;;;;;;1.33;0.73;;;10.20;99.90;;;;;;4949812;29;20729;-70
2022/02/21 00:28:27;;;;;;;0.87;0.50;;;10.20;99.90;;;;;;4952986;29;20222;-72
2022/02/21 00:30:53;;;;;;;1.80;0.63;;;10.20;99.90;;;;;;4953122;28;20185;-72
2022/02/21 00:33:18;;;;;;;2.13;0.60;;;10.20;99.90;;;;;;4952768;29;20479;-72
2022/02/21 00:35:44;;;;;;;3.97;0.50;;;10.20;99.90;;;;;;4953127;28;20187;-73
2022/02/21 00:38:09;;;;;;;0.80;0.50;;;10.20;99.90;;;;;;4953266;29;20582;-73
2022/02/21 00:40:35;;;;;;;0.80;0.60;;;10.10;99.90;;;;;;4952321;29;20233;-72
2022/02/21 00:43:00;;;;;;;1.33;0.50;;;10.10;99.90;;;;;;4952240;29;20288;-72
2022/02/21 00:45:26;;;;;;;5.60;0.67;;;10.10;99.90;;;;;;4952881;29;20184;-72
2022/02/21 00:47:51;;;;;;;4.60;0.60;;;10.10;99.90;;;;;;4952756;29;20186;-72
2022/02/21 00:50:17;;;;;;;0.87;0.67;;;10.00;99.90;;;;;;4952282;29;20222;-72
2022/02/21 00:52:43;;;;;;;3.70;0.97;;;9.90;99.90;;;;;;4952438;28;20220;-69
2022/02/21 00:55:09;;;;;;;3.00;1.03;;;9.90;99.90;;;;;;4952856;29;20474;-72
2022/02/21 00:57:34;;;;;;;5.13;1.17;;;9.90;99.90;;;;;;4951951;29;20186;-72
2022/02/21 01:00:00;;;;;;;2.43;0.77;;;9.90;99.90;;;;;;4952547;29;20178;-69
2022/02/21 05:31:42;;;;;;;8.10;1.10;;;4.40;99.90;;;;;;5609752;23;20493;-69
2022/02/21 05:34:07;;;;;;;7.53;1.53;;;4.50;99.90;;;;;;4987786;28;20425;-72
2022/02/21 05:36:33;;;;;;;4.90;2.30;;;4.60;99.90;;;;;;4991236;28;20204;-72
2022/02/21 05:38:58;;;;;;;4.33;1.40;;;4.50;99.90;;;;;;4991933;28;20274;-73
2022/02/21 05:41:24;;;;;;;3.67;0.93;;;4.50;99.90;;;;;;4992192;28;20271;-71
2022/02/21 05:43:49;;;;;;;7.60;1.40;;;4.60;99.90;;;;;;4991789;28;20604;-70
2022/02/21 05:46:15;;;;;;;4.40;1.07;;;4.60;99.90;;;;;;4991632;28;20287;-72
2022/02/21 05:48:41;;;;;;;3.33;0.90;;;4.70;99.90;;;;;;4992630;28;20211;-70
2022/02/21 05:51:06;;;;;;;5.87;1.13;;;4.70;99.90;;;;;;4996145;28;20204;-72
2022/02/21 05:53:32;;;;;;;4.00;0.83;;;4.70;99.90;;;;;;4995666;28;20204;-73
2022/02/21 05:55:57;;;;;;;5.33;1.73;;;4.80;99.90;;;;;;4996431;28;20235;-72
2022/02/21 05:58:23;;;;;;;8.97;1.70;;;4.70;99.90;;;;;;4996139;28;20183;-70
2022/02/21 06:00:49;;;;;;;7.23;1.00;;;4.70;99.90;;;;;;4995770;28;20189;-71
2022/02/21 06:03:16;;;;;;;6.33;1.10;;;4.80;99.90;;;;;;4994539;28;20635;-73
2022/02/21 06:05:43;;;;;;;7.43;1.87;;;4.80;99.90;;;;;;4995670;28;20509;-72
2022/02/21 06:08:08;;;;;;;6.20;2.00;;;4.80;99.90;;;;;;4995865;28;20393;-70
2022/02/21 06:10:34;;;;;;;13.80;1.50;;;4.90;99.90;;;;;;4995541;28;20473;-68
2022/02/21 06:12:59;;;;;;;5.40;1.30;;;4.90;99.90;;;;;;4995489;28;20228;-72
2022/02/21 06:15:25;;;;;;;7.00;1.50;;;5.00;99.90;;;;;;4995379;28;20181;-72
2022/02/21 06:17:50;;;;;;;9.10;2.00;;;5.00;99.90;;;;;;4995643;28;20169;-72
2022/02/21 06:20:16;;;;;;;5.57;1.20;;;5.00;99.90;;;;;;4995513;28;20273;-71
2022/02/21 06:22:42;;;;;;;8.57;1.37;;;5.00;99.90;;;;;;4995259;28;20201;-71
2022/02/21 06:25:08;;;;;;;14.70;1.77;;;5.00;99.90;;;;;;4991161;28;20279;-71
2022/02/21 06:27:33;;;;;;;10.27;2.10;;;5.00;99.90;;;;;;4989144;28;20188;-73
2022/02/21 06:29:59;;;;;;;3.73;1.40;;;5.00;99.90;;;;;;4993624;28;20418;-72
2022/02/21 06:32:25;;;;;;;9.50;1.20;;;5.10;99.90;;;;;;4993010;28;20255;-71
2022/02/21 06:34:51;;;;;;;4.20;1.40;;;5.00;99.90;;;;;;4993107;28;20176;-72
2022/02/21 06:37:17;;;;;;;4.17;1.30;;;5.00;99.90;;;;;;4975791;28;20387;-71
2022/02/21 06:39:43;;;;;;;6.60;1.13;;;5.00;99.90;;;;;;4976319;28;20214;-71
2022/02/21 06:42:09;;;;;;;4.60;1.03;;;5.00;99.90;;;;;;4973598;28;20536;-72
2022/02/21 06:44:34;;;;;;;12.67;2.27;;;5.00;99.90;;;;;;4973887;28;20197;-72
2022/02/21 06:47:00;;;;;;;7.60;1.47;;;5.00;99.90;;;;;;4975467;28;20241;-72
2022/02/21 06:49:25;;;;;;;12.77;2.83;;;5.00;99.90;;;;;;4974140;28;20185;-72
2022/02/21 06:51:51;;;;;;;7.40;1.93;;;5.00;99.90;;;;;;4956558;28;20212;-71
2022/02/21 06:54:18;;;;;;;7.67;1.40;;;5.00;99.90;;;;;;4985737;28;20184;-71
2022/02/21 06:56:44;;;;;;;7.50;1.73;;;5.00;99.90;;;;;;4993302;28;20215;-71
2022/02/21 06:59:09;;;;;;;11.83;1.63;;;5.00;99.90;;;;;;4994704;28;20428;-71
2022/02/21 07:01:35;;;;;;;5.03;1.97;;;5.00;99.90;;;;;;4993418;28;20207;-71
2022/02/21 07:04:00;;;;;;;10.73;2.13;;;4.90;99.90;;;;;;4993657;28;20251;-71
2022/02/21 07:06:26;;;;;;;9.27;1.30;;;4.90;99.90;;;;;;4991900;28;20617;-71
2022/02/21 07:08:51;;;;;;;10.10;1.80;;;4.90;99.90;;;;;;4994380;28;20182;-71
2022/02/21 07:11:17;;;;;;;11.83;1.80;;;4.80;99.90;;;;;;4994560;28;20227;-71
2022/02/21 07:13:42;;;;;;;5.03;1.03;;;4.80;99.90;;;;;;4976357;28;20218;-70
2022/02/21 07:16:08;;;;;;;11.90;1.77;;;4.80;99.90;;;;;;4994373;28;20256;-72
2022/02/21 07:18:37;;;;;;;6.97;1.30;;;4.80;99.90;;;;;;4994343;28;20186;-70
2022/02/21 07:21:03;;;;;;;7.00;2.20;;;4.70;99.90;;;;;;4994450;28;20227;-71
2022/02/21 07:23:30;;;;;;;10.33;3.43;;;4.70;99.90;;;;;;4994208;28;20872;-72
2022/02/21 07:25:56;;;;;;;8.17;1.50;;;4.80;99.90;;;;;;4994482;28;20797;-73
2022/02/21 07:28:21;;;;;;;6.70;1.47;;;4.90;99.90;;;;;;4994308;28;20402;-71
2022/02/21 07:30:47;;;;;;;9.93;1.47;;;5.70;99.90;;;;;;4994174;28;20221;-72
2022/02/21 07:33:12;;;;;;;11.17;1.50;;;6.60;99.90;;;;;;4994097;28;20581;-74
2022/02/21 07:35:38;;;;;;;9.20;1.63;;;7.60;99.90;;;;;;4994182;28;20225;-73
2022/02/21 07:38:04;;;;;;;9.17;2.10;;;8.60;99.90;;;;;;4994235;28;20180;-72
2022/02/21 07:40:30;;;;;;;9.80;2.30;;;8.80;99.90;;;;;;4994066;28;20183;-71
2022/02/21 07:42:55;;;;;;;6.83;1.93;;;9.40;99.90;;;;;;4993921;28;20930;-73
2022/02/21 07:45:23;;;;;;;8.73;1.33;;;9.80;99.90;;;;;;4993054;28;20566;-73
2022/02/21 07:47:57;;;;;;;6.50;1.73;;;9.90;99.90;;;;;;4994188;28;20277;-72
2022/02/21 07:50:23;;;;;;;7.40;1.80;;;10.20;99.90;;;;;;4994239;28;20418;-71
2022/02/21 07:52:49;;;;;;;6.43;2.17;;;10.20;99.90;;;;;;4993518;28;21016;-71
2022/02/21 07:55:16;;;;;;;5.20;1.80;;;10.70;99.90;;;;;;4994206;28;20829;-73
2022/02/21 07:57:43;;;;;;;12.53;1.80;;;11.00;99.90;;;;;;4993949;28;20422;-71
2022/02/21 08:00:11;;;;;;;3.20;1.33;;;10.60;99.90;;;;;;4994098;28;20419;-72
2022/02/21 08:02:37;;;;;;;7.53;1.77;;;10.80;99.90;;;;;;4993683;28;20979;-72
2022/02/21 08:05:03;;;;;;;8.63;1.83;;;11.00;99.90;;;;;;4994074;28;20519;-71
2022/02/21 08:07:29;;;;;;;11.40;1.80;;;10.80;99.90;;;;;;4994029;28;20443;-72
2022/02/21 08:09:54;;;;;;;9.40;2.20;;;10.20;99.90;;;;;;4994039;28;20421;-73
2022/02/21 08:12:20;;;;;;;9.53;2.20;;;10.30;99.90;;;;;;4993333;28;20221;-72
2022/02/21 08:14:45;;;;;;;11.00;2.40;;;9.90;99.90;;;;;;4993121;28;20216;-70
2022/02/21 08:17:11;;;;;;;10.57;2.33;;;9.60;99.90;;;;;;4976146;28;20578;-72
2022/02/21 08:19:36;;;;;;;9.37;1.70;;;9.20;99.90;;;;;;4993173;28;20192;-72
2022/02/21 08:22:02;;;;;;;15.47;2.57;;;8.90;99.90;;;;;;4993366;28;20235;-72
2022/02/21 08:24:27;;;;;;;15.20;1.77;;;8.60;99.90;;;;;;4992908;28;20670;-72
2022/02/21 08:26:53;;;;;;;14.13;1.73;;;8.10;99.90;;;;;;4993344;28;20178;-73
2022/02/21 08:29:19;;;;;;;8.03;1.80;;;7.80;99.90;;;;;;4991871;28;20175;-72
2022/02/21 08:31:46;;;;;;;9.40;2.03;;;7.60;99.90;;;;;;4992645;28;20248;-73
2022/02/21 08:34:11;;;;;;;9.70;2.37;;;7.50;99.90;;;;;;4992971;28;20216;-72
2022/02/21 08:36:37;;;;;;;9.13;1.73;;;7.30;99.90;;;;;;4992845;28;20419;-73
2022/02/21 08:39:03;;;;;;;3.53;1.10;;;7.50;99.90;;;;;;4993087;28;20638;-73
2022/02/21 08:41:29;;;;;;;8.90;1.40;;;8.10;99.90;;;;;;4992615;28;20263;-73
2022/02/21 08:43:54;;;;;;;8.47;2.10;;;8.10;99.90;;;;;;4992761;28;20416;-73
2022/02/21 08:46:20;;;;;;;12.10;1.93;;;8.40;99.90;;;;;;4992780;28;20190;-73
2022/02/21 08:48:46;;;;;;;16.70;1.60;;;8.90;99.90;;;;;;4992836;28;20215;-71
2022/02/21 08:51:11;;;;;;;8.37;1.67;;;9.50;99.90;;;;;;4992612;28;20695;-72
2022/02/21 08:53:37;;;;;;;3.70;1.57;;;9.40;99.90;;;;;;4992656;28;20257;-74
2022/02/21 08:56:04;;;;;;;14.47;2.70;;;8.90;99.90;;;;;;4992836;28;20180;-73
2022/02/21 08:58:29;;;;;;;18.80;2.10;;;8.60;99.90;;;;;;4992588;28;20626;-73
2022/02/21 09:00:55;;;;;;;8.93;2.13;;;8.50;99.90;;;;;;4992479;28;20451;-73
2022/02/21 09:03:26;;;;;;;12.73;1.87;;;8.20;99.90;;;;;;4992302;28;20275;-73
2022/02/21 09:05:55;;;;;;;9.97;2.33;;;8.00;99.90;;;;;;4991254;28;20226;-73
2022/02/21 09:08:21;;;;;;;8.13;1.73;;;8.00;99.90;;;;;;4992496;28;20454;-73
2022/02/21 09:10:46;;;;;;;9.30;2.37;;;7.90;99.90;;;;;;4992364;28;21006;-73
2022/02/21 09:13:12;;;;;;;12.63;1.80;;;7.80;99.90;;;;;;4992093;28;20475;-73
2022/02/21 09:15:38;;;;;;;14.83;2.43;;;7.70;99.90;;;;;;4992327;28;20412;-73
2022/02/21 09:18:05;;;;;;;11.57;2.07;;;7.60;99.90;;;;;;4993009;28;20180;-72
2022/02/21 09:20:31;;;;;;;8.40;2.20;;;7.70;99.90;;;;;;4992312;28;20549;-71
2022/02/21 09:22:57;;;;;;;10.03;1.70;;;7.60;99.90;;;;;;4991793;28;20522;-73
2022/02/21 09:25:23;;;;;;;12.10;1.87;;;7.50;99.90;;;;;;4991821;28;20433;-72
2022/02/21 09:27:49;;;;;;;5.70;1.40;;;7.50;99.90;;;;;;4989575;28;20183;-73
2022/02/21 09:30:14;;;;;;;13.23;1.30;;;7.60;99.90;;;;;;4992016;28;20412;-72
2022/02/21 09:32:40;;;;;;;5.23;2.27;;;7.40;99.90;;;;;;4991362;28;20659;-71
2022/02/21 09:35:07;;;;;;;11.53;1.40;;;7.30;99.90;;;;;;4991747;28;20172;-72
2022/02/21 09:37:33;;;;;;;12.37;1.80;;;7.30;99.90;;;;;;4991813;28;20179;-73
2022/02/21 09:39:59;;;;;;;9.10;1.60;;;7.40;99.90;;;;;;4991780;28;20902;-72
2022/02/21 09:42:25;;;;;;;6.73;1.37;;;7.50;99.90;;;;;;4991465;28;20526;-72
2022/02/21 09:44:50;;;;;;;10.67;1.63;;;7.90;99.90;;;;;;4991633;28;20230;-72
2022/02/21 09:47:17;;;;;;;6.60;1.10;;;8.20;99.90;;;;;;4991746;28;20398;-73
2022/02/21 09:49:43;;;;;;;8.47;1.40;;;8.60;99.90;;;;;;4991779;28;20205;-72
2022/02/21 09:52:09;;;;;;;9.00;1.40;;;9.00;99.90;;;;;;4991546;28;20530;-72
2022/02/21 09:54:35;;;;;;;6.77;1.43;;;9.00;99.90;;;;;;4991127;28;20506;-73
2022/02/21 09:57:01;;;;;;;7.70;1.23;;;9.30;99.90;;;;;;4989938;28;20281;-73
2022/02/21 09:59:26;;;;;;;9.83;1.70;;;9.80;99.90;;;;;;4991632;28;20500;-73
2022/02/21 10:01:52;;;;;;;6.20;1.50;;;9.60;99.90;;;;;;4991607;28;20243;-73
2022/02/21 10:04:23;;;;;;;6.00;1.57;;;9.70;99.90;;;;;;4991101;28;20233;-72
2022/02/21 10:06:52;;;;;;;5.73;1.17;;;9.30;99.90;;;;;;4991555;28;20400;-74
2022/02/21 10:09:18;;;;;;;8.00;1.80;;;8.70;99.90;;;;;;4991650;28;20402;-73
2022/02/21 10:11:46;;;;;;;9.43;1.30;;;8.80;99.90;;;;;;4991410;28;20439;-73
2022/02/21 10:14:18;;;;;;;3.50;1.50;;;9.30;99.90;;;;;;4990891;28;20290;-73
2022/02/21 10:16:46;;;;;;;4.97;1.03;;;9.90;99.90;;;;;;4991354;28;21234;-72
2022/02/21 10:19:15;;;;;;;6.40;1.73;;;10.40;99.90;;;;;;4991571;28;20476;-72
2022/02/21 10:22:03;;;;;;;5.93;2.23;;;10.50;99.90;;;;;;4991174;28;20551;-72
2022/02/21 10:24:41;;;;;;;2.83;1.17;;;10.60;99.90;;;;;;4990934;28;20447;-73
2022/02/21 10:27:24;;;;;;;6.37;1.77;;;10.70;99.90;;;;;;4991460;28;20786;-72
2022/02/21 10:30:02;;;;;;;6.47;1.47;;;10.60;99.90;;;;;;4991407;28;20575;-71
2022/02/21 10:32:35;;;;;;;5.70;1.27;;;10.70;99.90;;;;;;4990659;28;20478;-71
2022/02/21 10:35:24;;;;;;;3.07;1.83;;;11.50;99.90;;;;;;4992604;28;20449;-71
2022/02/21 10:37:58;;;;;;;4.90;1.40;;;11.40;99.90;;;;;;4994947;28;20412;-71
2022/02/21 10:40:36;;;;;;;6.67;1.33;;;10.90;99.90;;;;;;4994923;28;20987;-71
2022/02/21 10:43:14;;;;;;;7.63;1.70;;;10.40;99.90;;;;;;4994571;28;20426;-72
2022/02/21 10:45:41;;;;;;;7.10;1.27;;;10.10;99.90;;;;;;4994923;28;20423;-72
2022/02/21 10:48:20;;;;;;;4.13;1.50;;;10.10;99.90;;;;;;4994907;28;20450;-74
2022/02/21 10:50:55;;;;;;;13.10;1.90;;;10.40;99.90;;;;;;4995108;28;20819;-72
2022/02/21 10:53:23;;;;;;;5.47;0.90;;;10.70;99.90;;;;;;4992883;28;20500;-71
2022/02/21 10:55:54;;;;;;;4.57;1.60;;;11.00;99.90;;;;;;4994670;28;20496;-72
2022/02/21 10:58:26;;;;;;;5.13;1.13;;;10.80;99.90;;;;;;4994159;28;20475;-73
2022/02/21 11:00:54;;;;;;;5.20;1.43;;;10.60;99.90;;;;;;4994425;28;20424;-73
2022/02/21 11:03:24;;;;;;;2.30;0.87;;;10.70;99.90;;;;;;4994140;28;20428;-73
2022/02/21 11:05:51;;;;;;;3.07;1.00;;;11.10;99.90;;;;;;4994578;28;20478;-73
2022/02/21 11:08:19;;;;;;;5.70;0.90;;;11.70;99.90;;;;;;4994458;28;20432;-71
2022/02/21 11:10:48;;;;;;;5.23;1.70;;;11.60;99.90;;;;;;4994359;28;20421;-74
2022/02/21 11:13:15;;;;;;;3.13;1.00;;;11.80;99.90;;;;;;4992540;28;20848;-73
2022/02/21 11:15:41;;;;;;;4.13;1.03;;;11.40;99.90;;;;;;4994343;28;20424;-71
2022/02/21 11:18:12;;;;;;;5.33;1.37;;;10.70;99.90;;;;;;4994293;28;20418;-72
2022/02/21 11:20:38;;;;;;;7.53;1.40;;;10.10;99.90;;;;;;4994045;28;20420;-71
2022/02/21 11:23:04;;;;;;;4.40;1.17;;;9.70;99.90;;;;;;4993921;28;20388;-73
2022/02/21 11:25:38;;;;;;;4.30;1.20;;;9.40;99.90;;;;;;4994310;28;20208;-73
2022/02/21 11:28:12;;;;;;;4.97;0.97;;;9.50;99.90;;;;;;4994236;28;20433;-73
2022/02/21 11:30:41;;;;;;;5.37;1.13;;;9.70;99.90;;;;;;4993861;28;20417;-73
2022/02/21 11:33:12;;;;;;;4.83;0.93;;;9.40;99.90;;;;;;4993422;28;20487;-73
2022/02/21 11:36:05;;;;;;;3.37;0.80;;;8.70;99.90;;;;;;4993939;28;20910;-73
2022/02/21 11:38:33;;;;;;;6.20;1.30;;;7.80;99.90;;;;;;4993654;28;20417;-72
2022/02/21 11:41:01;;;;;;;7.77;1.13;;;7.10;99.90;;;;;;4993756;28;20444;-73
2022/02/21 11:43:38;;;;;;;8.03;1.57;;;6.70;99.90;;;;;;4993259;28;20427;-73
2022/02/21 11:46:09;;;;;;;6.17;1.00;;;6.60;99.90;;;;;;4993858;28;20438;-72
2022/02/21 11:48:54;;;;;;;4.40;1.10;;;6.90;99.90;;;;;;4993783;28;20429;-73
2022/02/21 11:51:31;;;;;;;3.80;0.97;;;7.20;99.90;;;;;;4994296;28;20563;-73
2022/02/21 11:54:11;;;;;;;10.57;3.00;;;7.70;99.90;;;;;;4993173;28;20974;-73
2022/02/21 11:56:49;;;;;;;4.93;1.80;;;8.10;99.90;;;;;;4993601;28;20871;-73
2022/02/21 11:59:25;;;;;;;4.00;1.93;;;8.30;99.90;;;;;;4994195;28;20423;-73
2022/02/21 12:02:15;;;;;;;5.13;1.13;;;8.20;99.90;;;;;;4993954;28;20440;-73
2022/02/21 12:04:48;;;;;;;7.10;1.37;;;8.40;99.90;;;;;;4992949;28;20414;-73
2022/02/21 12:07:22;;;;;;;3.10;1.00;;;8.40;99.90;;;;;;4993230;28;20423;-71
2022/02/21 12:10:07;;;;;;;6.53;1.33;;;8.50;99.90;;;;;;4993389;28;20411;-73
2022/02/21 12:12:47;;;;;;;7.93;1.40;;;8.60;99.90;;;;;;4992785;28;20944;-73
2022/02/21 12:15:13;;;;;;;4.87;1.50;;;8.60;99.90;;;;;;4993369;28;20409;-74
2022/02/21 12:17:39;;;;;;;6.40;1.37;;;8.60;99.90;;;;;;4993181;28;20467;-73
2022/02/21 12:20:38;;;;;;;6.17;1.60;;;8.80;99.90;;;;;;4993327;28;20171;-73
2022/02/21 12:23:14;;;;;;;4.90;1.23;;;9.20;99.90;;;;;;4981545;28;20342;-73
2022/02/21 12:25:41;;;;;;;9.87;1.27;;;9.30;99.90;;;;;;4993137;28;20396;-72
2022/02/21 12:28:17;;;;;;;3.13;0.83;;;9.30;99.90;;;;;;4992896;28;20923;-72
2022/02/21 12:30:48;;;;;;;7.87;0.93;;;9.10;99.90;;;;;;4992846;28;20425;-73
2022/02/21 12:33:22;;;;;;;2.30;0.80;;;8.80;99.90;;;;;;4992493;28;20467;-72
2022/02/21 12:35:59;;;;;;;6.10;1.10;;;8.50;99.90;;;;;;4993134;28;20511;-72
2022/02/21 12:38:28;;;;;;;7.40;1.00;;;8.50;99.90;;;;;;4992666;28;20419;-74
2022/02/21 12:41:02;;;;;;;3.57;1.07;;;8.50;99.90;;;;;;4993345;28;20420;-71
2022/02/21 12:43:49;;;;;;;5.87;1.33;;;8.50;99.90;;;;;;4992100;28;20430;-72
2022/02/21 12:46:17;;;;;;;3.03;0.60;;;8.40;99.90;;;;;;4991124;28;20548;-72
2022/02/21 12:48:44;;;;;;;4.33;1.57;;;8.30;99.90;;;;;;4982076;28;20432;-72
2022/02/21 12:51:17;;;;;;;6.20;1.20;;;8.30;99.90;;;;;;4992384;28;20854;-72
2022/02/21 12:53:58;;;;;;;3.00;1.00;;;8.30;99.90;;;;;;4992004;28;20471;-72
2022/02/21 12:56:25;;;;;;;4.90;1.03;;;8.20;99.90;;;;;;4992336;28;20922;-72
2022/02/21 12:58:51;;;;;;;6.87;1.10;;;8.20;99.90;;;;;;4991171;28;20928;-74
2022/02/21 13:01:19;;;;;;;5.13;1.27;;;8.10;99.90;;;;;;4991358;28;20438;-73
2022/02/21 13:03:52;;;;;;;5.00;1.27;;;8.00;99.90;;;;;;4991699;28;20180;-73
2022/02/21 13:06:18;;;;;;;2.20;0.90;;;8.00;99.90;;;;;;4992670;28;20785;-73
2022/02/21 13:08:43;;;;;;;5.80;1.10;;;8.10;99.90;;;;;;4992310;28;20420;-69
2022/02/21 13:11:09;;;;;;;6.67;2.03;;;8.20;99.90;;;;;;4992363;28;20223;-74
2022/02/21 13:13:44;;;;;;;9.03;0.80;;;8.40;99.90;;;;;;4994383;28;20209;-73
2022/02/21 13:16:10;;;;;;;3.03;0.90;;;8.40;99.90;;;;;;4992724;28;20232;-74
2022/02/21 13:19:01;;;;;;;1.80;0.70;;;8.50;99.90;;;;;;4992248;28;20419;-74
2022/02/21 13:21:40;;;;;;;5.43;0.70;;;8.40;99.90;;;;;;4992032;28;20200;-73
2022/02/21 13:24:08;;;;;;;3.70;0.63;;;8.40;99.90;;;;;;4992136;28;20416;-73
2022/02/21 13:27:01;;;;;;;3.97;0.70;;;8.30;99.90;;;;;;4992067;28;20944;-73
2022/02/21 13:29:41;;;;;;;1.73;1.00;;;8.20;99.90;;;;;;4991123;28;20420;-73
2022/02/21 13:32:18;;;;;;;2.90;0.80;;;8.30;99.90;;;;;;4991809;28;21086;-73
2022/02/21 13:34:48;;;;;;;13.03;1.40;;;8.30;99.90;;;;;;4991766;28;20421;-70
2022/02/21 13:37:35;;;;;;;1.10;0.60;;;8.30;99.90;;;;;;4992088;28;20810;-74
2022/02/21 13:40:04;;;;;;;6.07;1.30;;;8.40;99.90;;;;;;4990830;28;20508;-73
2022/02/21 13:42:38;;;;;;;6.30;1.93;;;8.30;99.90;;;;;;4991823;28;20487;-74
2022/02/21 13:45:26;;;;;;;2.13;0.70;;;8.20;99.90;;;;;;4990704;28;20431;-73
2022/02/21 13:48:01;;;;;;;5.80;1.13;;;8.20;99.90;;;;;;4992012;28;20942;-73
2022/02/21 13:50:45;;;;;;;4.37;0.83;;;8.20;99.90;;;;;;4991970;28;20675;-74
2022/02/21 13:53:33;;;;;;;1.73;0.67;;;8.20;99.90;;;;;;4991769;28;20481;-73
2022/02/21 13:56:19;;;;;;;5.57;1.10;;;8.20;99.90;;;;;;4991912;28;20455;-73
2022/02/21 13:58:52;;;;;;;1.30;0.70;;;8.00;99.90;;;;;;4992152;28;20413;-71
2022/02/21 14:01:21;;;;;;;1.20;0.70;;;7.90;99.90;;;;;;4991871;28;20439;-73
2022/02/21 14:04:04;;;;;;;3.30;0.70;;;7.90;99.90;;;;;;4991578;28;20418;-74
2022/02/21 14:06:39;;;;;;;4.03;1.00;;;7.80;99.90;;;;;;4991878;28;20519;-74
2022/02/21 14:09:25;;;;;;;3.27;0.83;;;7.60;99.90;;;;;;4991775;28;20416;-73
2022/02/21 14:11:50;;;;;;;5.83;2.30;;;7.60;99.90;;;;;;4995559;28;20542;-74
2022/02/21 14:14:21;;;;;;;3.07;0.63;;;7.70;99.90;;;;;;4995297;28;20537;-74
2022/02/21 14:16:47;;;;;;;1.67;0.60;;;7.90;99.90;;;;;;4995491;28;20647;-71
2022/02/21 14:19:16;;;;;;;3.93;0.77;;;8.20;99.90;;;;;;4995624;28;20913;-74
2022/02/21 14:21:41;;;;;;;4.70;1.00;;;8.20;99.90;;;;;;4995532;28;20437;-74
2022/02/21 14:24:07;;;;;;;3.50;0.80;;;8.30;99.90;;;;;;4995439;28;20473;-74
2022/02/21 14:26:33;;;;;;;3.83;0.80;;;8.20;99.90;;;;;;4995358;28;20180;-73
2022/02/21 14:28:59;;;;;;;7.00;1.00;;;8.10;99.90;;;;;;4995504;28;20186;-73
2022/02/21 14:31:26;;;;;;;7.30;0.80;;;8.00;99.90;;;;;;4995058;28;20298;-72
2022/02/21 14:33:51;;;;;;;2.03;0.80;;;8.10;99.90;;;;;;4994851;28;20212;-73
2022/02/21 14:36:18;;;;;;;1.90;0.97;;;8.00;99.90;;;;;;4995299;28;20511;-73
2022/02/21 14:38:43;;;;;;;3.90;1.40;;;7.90;99.90;;;;;;4994962;28;20185;-73
2022/02/21 14:41:09;;;;;;;4.37;0.80;;;7.80;99.90;;;;;;4993894;28;20442;-73
2022/02/21 14:43:35;;;;;;;1.77;0.80;;;7.70;99.90;;;;;;4994706;28;20672;-74
2022/02/21 14:46:01;;;;;;;4.97;1.53;;;7.60;99.90;;;;;;4995137;28;20222;-74
2022/02/21 14:48:29;;;;;;;6.57;1.10;;;7.60;99.90;;;;;;4994361;28;20188;-74
2022/02/21 14:50:55;;;;;;;6.93;0.90;;;7.60;99.90;;;;;;4984953;28;20495;-73
2022/02/21 14:53:20;;;;;;;4.20;1.10;;;7.50;99.90;;;;;;4984927;28;20911;-72
2022/02/21 14:55:47;;;;;;;4.27;0.90;;;7.50;99.90;;;;;;4983632;28;20830;-74
2022/02/21 14:58:13;;;;;;;3.53;0.70;;;7.50;99.90;;;;;;4985207;28;20200;-74
2022/02/21 15:00:39;;;;;;;7.73;0.90;;;7.40;99.90;;;;;;4984727;28;20425;-71
2022/02/21 15:03:06;;;;;;;5.67;1.00;;;7.30;99.90;;;;;;4983347;28;20948;-73
2022/02/21 15:05:31;;;;;;;6.03;2.20;;;7.30;99.90;;;;;;4985072;28;20416;-73
2022/02/21 15:07:59;;;;;;;2.40;1.03;;;7.30;99.90;;;;;;4984587;28;20429;-73
2022/02/21 15:10:26;;;;;;;3.10;1.10;;;7.30;99.90;;;;;;4983346;28;20854;-74
2022/02/21 15:12:54;;;;;;;6.53;1.33;;;7.30;99.90;;;;;;4984809;28;20500;-71
2022/02/21 15:15:20;;;;;;;1.90;1.10;;;7.30;99.90;;;;;;4984634;28;20435;-73
2022/02/21 15:17:46;;;;;;;2.60;0.70;;;7.40;99.90;;;;;;4985601;28;20426;-73
2022/02/21 15:20:12;;;;;;;9.53;1.17;;;7.40;99.90;;;;;;4983406;28;20408;-73
2022/02/21 15:22:38;;;;;;;3.27;1.30;;;7.40;99.90;;;;;;4982985;28;20204;-73
2022/02/21 15:25:07;;;;;;;1.40;1.07;;;7.40;99.90;;;;;;4984854;28;20181;-73
2022/02/21 15:27:32;;;;;;;3.30;0.90;;;7.40;99.90;;;;;;4983356;28;20510;-73
2022/02/21 15:29:58;;;;;;;4.87;0.70;;;7.30;99.90;;;;;;4985986;28;20854;-73
2022/02/21 15:32:24;;;;;;;5.80;1.17;;;7.20;99.90;;;;;;4982636;28;20208;-74
2022/02/21 15:34:50;;;;;;;3.70;0.70;;;7.10;99.90;;;;;;4980358;28;20175;-72
2022/02/21 15:37:17;;;;;;;2.10;0.60;;;7.10;99.90;;;;;;4984110;28;20178;-73
2022/02/21 15:39:42;;;;;;;1.17;0.73;;;7.00;99.90;;;;;;4984758;28;20953;-73
2022/02/21 15:42:08;;;;;;;1.57;0.70;;;6.90;99.90;;;;;;4982657;28;20427;-73
2022/02/21 15:44:33;;;;;;;2.07;0.90;;;6.90;99.90;;;;;;4983997;28;20187;-74
2022/02/21 15:47:00;;;;;;;2.40;0.60;;;6.80;99.90;;;;;;4984082;28;20658;-73
2022/02/21 15:49:29;;;;;;;5.23;0.80;;;6.80;99.90;;;;;;4982589;28;20178;-73
2022/02/21 15:51:56;;;;;;;4.17;0.77;;;6.70;99.90;;;;;;4983979;28;20432;-74
2022/02/21 15:54:24;;;;;;;2.30;0.77;;;6.60;99.90;;;;;;4984237;28;20474;-73
2022/02/21 15:56:50;;;;;;;1.17;0.60;;;6.50;99.90;;;;;;4982731;28;20418;-75
2022/02/21 15:59:15;;;;;;;1.53;1.07;;;6.40;99.90;;;;;;4983940;28;20431;-74
2022/02/21 16:01:41;;;;;;;5.10;1.67;;;6.30;99.90;;;;;;4983747;28;20441;-74
2022/02/21 16:04:06;;;;;;;2.93;1.10;;;6.30;99.90;;;;;;4982292;28;20246;-73
2022/02/21 16:06:32;;;;;;;5.50;2.10;;;6.20;99.90;;;;;;4981518;28;20614;-73
2022/02/21 16:08:58;;;;;;;6.80;1.37;;;6.20;99.90;;;;;;4983318;28;20180;-73
2022/02/21 16:11:23;;;;;;;2.97;1.00;;;6.20;99.90;;;;;;4979835;28;20244;-73
2022/02/21 16:13:50;;;;;;;2.13;0.80;;;6.10;99.90;;;;;;4984474;28;20600;-73
2022/02/21 16:16:16;;;;;;;2.70;1.00;;;6.00;99.90;;;;;;4983766;28;20980;-73
2022/02/21 16:18:42;;;;;;;2.70;1.20;;;6.00;99.90;;;;;;4983358;28;20504;-73
2022/02/21 16:21:07;;;;;;;4.10;1.40;;;5.90;99.90;;;;;;4981564;28;20477;-73
2022/02/21 16:23:33;;;;;;;2.97;1.47;;;5.90;99.90;;;;;;4992985;28;20656;-73
2022/02/21 16:25:59;;;;;;;2.00;0.90;;;5.90;99.90;;;;;;4993431;28;20171;-73
2022/02/21 16:28:25;;;;;;;3.33;1.10;;;5.80;99.90;;;;;;4993311;28;20560;-73
2022/02/21 16:30:52;;;;;;;2.40;0.90;;;5.70;99.90;;;;;;4992807;28;20188;-73
2022/02/21 16:33:18;;;;;;;2.87;0.80;;;5.70;99.90;;;;;;4991753;28;20515;-74
2022/02/21 16:35:44;;;;;;;1.27;0.90;;;5.70;99.90;;;;;;4986125;28;20474;-74
2022/02/21 16:38:10;;;;;;;1.87;0.60;;;5.60;99.90;;;;;;4973841;28;20955;-73
2022/02/21 16:40:36;;;;;;;2.87;0.90;;;5.60;99.90;;;;;;4973388;28;20180;-73
2022/02/21 16:43:02;;;;;;;2.80;1.47;;;5.60;99.90;;;;;;4973394;28;20434;-73
2022/02/21 16:45:27;;;;;;;0.77;0.60;;;5.50;99.90;;;;;;4976400;28;20187;-73
2022/02/21 16:47:53;;;;;;;3.83;1.10;;;5.50;99.90;;;;;;4973437;28;20468;-73
2022/02/21 16:50:19;;;;;;;2.83;0.80;;;5.50;99.90;;;;;;4973491;28;20181;-73
2022/02/21 16:52:45;;;;;;;4.13;1.00;;;5.50;99.90;;;;;;4972933;28;20228;-72
2022/02/21 16:55:11;;;;;;;2.10;0.80;;;5.50;99.90;;;;;;4973466;28;20888;-73
2022/02/21 16:57:38;;;;;;;2.10;0.70;;;5.50;99.90;;;;;;4973316;28;20473;-74
2022/02/21 17:00:06;;;;;;;3.07;1.20;;;5.40;99.90;;;;;;4973154;28;20171;-74
2022/02/21 17:02:32;;;;;;;1.90;1.60;;;5.40;99.90;;;;;;4972785;28;20453;-74
2022/02/21 17:04:59;;;;;;;3.27;1.10;;;5.30;99.90;;;;;;4973011;28;20507;-74
2022/02/21 17:07:24;;;;;;;0.97;0.60;;;5.20;99.90;;;;;;4973082;28;20448;-74
2022/02/21 17:09:50;;;;;;;3.50;0.67;;;5.20;99.90;;;;;;4973323;28;20955;-74
2022/02/21 17:12:16;;;;;;;5.10;0.70;;;5.10;99.90;;;;;;4972907;28;20202;-74
2022/02/21 17:14:41;;;;;;;3.70;0.70;;;5.10;99.90;;;;;;4972667;28;20187;-74
2022/02/21 17:17:07;;;;;;;2.60;1.10;;;5.10;99.90;;;;;;4973316;28;20188;-75
2022/02/21 17:19:32;;;;;;;4.27;1.77;;;5.10;99.90;;;;;;4972832;28;20259;-76
2022/02/21 17:21:58;;;;;;;1.97;0.70;;;5.10;99.90;;;;;;4973453;28;20202;-73
2022/02/21 17:24:23;;;;;;;1.43;1.30;;;5.10;99.90;;;;;;4975272;28;20186;-73
2022/02/21 17:26:49;;;;;;;0.63;0.63;;;5.10;99.90;;;;;;4973233;28;20662;-73
2022/02/21 17:29:14;;;;;;;2.30;0.60;;;5.20;99.90;;;;;;4973359;28;20606;-73